createdAt,value
2022-08-20T00:01:11.612Z,19.27
2022-08-20T00:06:17.568Z,19.25
2022-08-20T00:11:26.190Z,19.25
2022-08-20T00:16:35.043Z,19.22
2022-08-20T00:21:37.839Z,19.10
2022-08-20T00:26:52.809Z,19.06
2022-08-20T00:31:55.085Z,18.97
2022-08-20T00:36:57.308Z,18.85
2022-08-20T00:41:59.796Z,18.78
2022-08-20T00:47:02.366Z,18.73
2022-08-20T00:52:12.735Z,18.77
2022-08-20T00:57:43.794Z,18.77
2022-08-20T01:02:52.897Z,18.53
2022-08-20T01:07:56.062Z,18.46
2022-08-20T01:12:59.951Z,18.44
2022-08-20T01:18:02.770Z,18.38
2022-08-20T01:23:32.647Z,18.36
2022-08-20T01:28:43.857Z,18.31
2022-08-20T01:33:46.988Z,18.26
2022-08-20T01:38:54.150Z,18.19
2022-08-20T01:43:58.832Z,18.13
2022-08-20T01:49:13.635Z,18.18
2022-08-20T01:54:19.572Z,17.97
2022-08-20T01:59:22.183Z,17.95
2022-08-20T02:04:24.534Z,17.85
2022-08-20T02:09:30.143Z,17.89
2022-08-20T02:14:33.285Z,17.83
2022-08-20T02:19:39.456Z,17.87
2022-08-20T02:24:41.566Z,17.77
2022-08-20T02:29:43.788Z,17.74
2022-08-20T02:34:45.971Z,17.72
2022-08-20T02:39:48.139Z,17.71
2022-08-20T02:44:50.303Z,17.73
2022-08-20T02:49:52.714Z,17.76
2022-08-20T02:54:54.872Z,17.82
2022-08-20T02:59:57.083Z,17.81
2022-08-20T03:04:59.217Z,17.83
2022-08-20T03:10:02.008Z,17.87
2022-08-20T03:15:08.227Z,17.95
2022-08-20T03:20:23.883Z,17.95
2022-08-20T03:25:26.838Z,18.00
2022-08-20T03:30:30.475Z,17.83
2022-08-20T03:35:34.014Z,18.05
2022-08-20T03:40:38.004Z,18.12
2022-08-20T03:45:43.927Z,18.18
2022-08-20T03:50:48.422Z,18.22
2022-08-20T03:55:56.415Z,18.21
2022-08-20T04:01:01.209Z,18.27
2022-08-20T04:06:03.830Z,18.38
2022-08-20T04:11:06.216Z,18.53
2022-08-20T04:16:13.371Z,18.68
2022-08-20T04:21:16.568Z,18.83
2022-08-20T04:26:20.033Z,18.92
2022-08-20T04:31:25.405Z,19.05
2022-08-20T04:36:27.891Z,19.39
2022-08-20T04:41:30.123Z,19.83
2022-08-20T04:46:32.728Z,20.17
2022-08-20T04:51:34.974Z,20.21
2022-08-20T04:56:39.810Z,20.19
2022-08-20T05:01:42.012Z,20.26
2022-08-20T05:06:44.978Z,20.33
2022-08-20T05:11:47.131Z,20.81
2022-08-20T05:16:50.939Z,21.85
2022-08-20T05:21:53.811Z,22.84
2022-08-20T05:26:56.166Z,23.74
2022-08-20T05:31:58.253Z,24.23
2022-08-20T05:37:04.276Z,24.20
2022-08-20T05:42:11.302Z,23.68
2022-08-20T05:47:14.090Z,23.21
2022-08-20T05:52:16.438Z,22.98
2022-08-20T05:57:20.280Z,22.97
2022-08-20T06:02:40.833Z,22.89
2022-08-20T06:07:43.281Z,22.54
2022-08-20T06:12:45.601Z,22.17
2022-08-20T06:17:51.217Z,22.00
2022-08-20T06:23:00.689Z,22.08
2022-08-20T06:28:03.887Z,22.18
2022-08-20T06:33:06.343Z,22.16
2022-08-20T06:38:11.342Z,22.17
2022-08-20T06:43:13.657Z,21.98
2022-08-20T06:48:17.337Z,21.83
2022-08-20T06:53:20.978Z,21.91
2022-08-20T06:58:36.870Z,21.87
2022-08-20T07:03:54.780Z,21.96
2022-08-20T07:08:58.093Z,22.22
2022-08-20T07:14:01.395Z,22.79
2022-08-20T07:19:04.030Z,23.34
2022-08-20T07:24:06.743Z,23.67
2022-08-20T07:29:08.844Z,24.12
2022-08-20T07:34:11.746Z,24.71
2022-08-20T07:39:14.726Z,25.47
2022-08-20T07:44:17.528Z,25.85
2022-08-20T07:49:19.655Z,25.75
2022-08-20T07:54:21.847Z,25.53
2022-08-20T07:59:24.131Z,25.13
2022-08-20T08:04:26.394Z,24.85
2022-08-20T08:09:29.059Z,24.76
2022-08-20T08:14:34.323Z,24.86
2022-08-20T08:19:43.202Z,25.75
2022-08-20T08:24:56.825Z,26.26
2022-08-20T08:30:01.218Z,26.58
2022-08-20T08:35:09.159Z,26.49
2022-08-20T08:40:11.676Z,25.88
2022-08-20T08:45:17.411Z,25.40
2022-08-20T08:50:50.006Z,25.18
2022-08-20T08:55:48.799Z,24.86
2022-08-20T09:00:56.143Z,24.73
2022-08-20T09:06:01.392Z,24.56
2022-08-20T09:11:06.363Z,24.41
2022-08-20T09:16:08.690Z,23.95
2022-08-20T09:21:11.117Z,23.53
2022-08-20T09:26:13.799Z,23.45
2022-08-20T09:31:16.035Z,23.40
2022-08-20T09:36:32.159Z,23.08
2022-08-20T09:41:35.036Z,22.82
2022-08-20T09:46:37.335Z,22.64
2022-08-20T09:51:39.513Z,22.56
2022-08-20T09:56:41.890Z,22.47
2022-08-20T10:01:44.157Z,22.17
2022-08-20T10:06:46.442Z,21.89
2022-08-20T10:11:48.584Z,21.85
2022-08-20T10:16:56.520Z,21.99
2022-08-20T10:22:02.646Z,21.89
2022-08-20T10:27:05.169Z,21.90
2022-08-20T10:32:12.990Z,22.02
2022-08-20T10:37:17.892Z,22.04
2022-08-20T10:42:20.367Z,22.09
2022-08-20T10:47:28.648Z,22.24
2022-08-20T10:52:31.003Z,22.09
2022-08-20T10:57:34.378Z,22.39
2022-08-20T11:02:36.877Z,22.49
2022-08-20T11:07:50.741Z,22.56
2022-08-20T11:13:04.315Z,22.63
2022-08-20T11:18:06.972Z,22.71
2022-08-20T11:23:09.244Z,22.72
2022-08-20T11:28:13.017Z,22.90
2022-08-20T11:33:15.260Z,23.09
2022-08-20T11:38:18.574Z,23.16
2022-08-20T11:43:20.821Z,23.21
2022-08-20T11:48:23.160Z,23.21
2022-08-20T11:53:25.474Z,23.23
2022-08-20T11:58:27.687Z,23.17
2022-08-20T12:03:31.116Z,23.35
2022-08-20T12:08:33.305Z,23.40
2022-08-20T12:13:47.135Z,23.52
2022-08-20T12:18:52.027Z,23.42
2022-08-20T12:23:54.194Z,23.38
2022-08-20T12:28:56.431Z,23.23
2022-08-20T12:33:58.779Z,23.31
2022-08-20T12:39:01.050Z,23.28
2022-08-20T12:44:07.106Z,23.34
2022-08-20T12:49:18.455Z,23.43
2022-08-20T12:54:20.535Z,23.30
2022-08-20T12:59:26.116Z,23.32
2022-08-20T13:04:28.557Z,23.34
2022-08-20T13:09:31.594Z,23.35
2022-08-20T13:14:34.891Z,23.28
2022-08-20T13:19:38.599Z,23.21
2022-08-20T13:24:40.902Z,23.18
2022-08-20T13:29:54.089Z,23.33
2022-08-20T13:35:00.146Z,23.24
2022-08-20T13:40:02.751Z,23.31
2022-08-20T13:45:06.435Z,23.36
2022-08-20T13:50:18.747Z,23.56
2022-08-20T13:55:23.370Z,23.54
2022-08-20T14:00:32.357Z,23.60
2022-08-20T14:05:35.559Z,23.42
2022-08-20T14:10:38.272Z,23.28
2022-08-20T14:15:41.554Z,23.23
2022-08-20T14:20:45.421Z,23.23
2022-08-20T14:25:50.363Z,23.25
2022-08-20T14:30:53.627Z,23.15
2022-08-20T14:35:55.950Z,23.23
2022-08-20T14:40:58.124Z,23.09
2022-08-20T14:46:00.270Z,23.11
2022-08-20T14:51:03.241Z,23.08
2022-08-20T14:56:05.689Z,23.09
2022-08-20T15:01:07.996Z,23.08
2022-08-20T15:06:21.884Z,23.07
2022-08-20T15:11:24.812Z,23.03
2022-08-20T15:16:28.209Z,22.89
2022-08-20T15:21:44.809Z,22.96
2022-08-20T15:26:48.519Z,22.94
2022-08-20T15:31:51.552Z,22.93
2022-08-20T15:36:53.769Z,22.93
2022-08-20T15:41:55.977Z,22.91
2022-08-20T15:47:23.722Z,23.12
2022-08-20T15:52:31.058Z,22.91
2022-08-20T15:58:04.062Z,23.06
2022-08-20T16:03:32.302Z,23.05
2022-08-20T16:09:05.126Z,22.97
2022-08-20T16:14:19.615Z,22.83
2022-08-20T16:19:26.139Z,22.60
2022-08-20T16:24:28.653Z,22.45
2022-08-20T16:30:04.869Z,22.57
2022-08-20T16:35:29.421Z,22.36
2022-08-20T16:40:51.935Z,22.21
2022-08-20T16:46:12.889Z,22.25
2022-08-20T16:51:27.481Z,22.18
2022-08-20T16:56:34.493Z,22.06
2022-08-20T17:01:37.920Z,21.91
2022-08-20T17:06:46.375Z,21.94
2022-08-20T17:11:49.439Z,21.80
2022-08-20T17:16:52.818Z,21.77
2022-08-20T17:21:57.154Z,21.77
2022-08-20T17:27:10.042Z,21.79
2022-08-20T17:32:22.653Z,21.74
2022-08-20T17:37:33.448Z,21.73
2022-08-20T17:42:57.246Z,21.76
2022-08-20T17:48:01.170Z,21.56
2022-08-20T17:53:27.465Z,21.72
2022-08-20T17:58:38.102Z,21.51
2022-08-20T18:03:40.623Z,21.41
2022-08-20T18:08:52.711Z,21.52
2022-08-20T18:14:11.412Z,21.51
2022-08-20T18:19:22.123Z,21.28
2022-08-20T18:24:34.034Z,21.27
2022-08-20T18:29:39.139Z,21.66
2022-08-20T18:34:42.215Z,21.09
2022-08-20T18:39:47.016Z,21.05
2022-08-20T18:44:52.486Z,20.98
2022-08-20T18:50:06.500Z,20.98
2022-08-20T18:55:28.115Z,20.94
2022-08-20T19:00:43.991Z,20.88
2022-08-20T19:05:46.262Z,20.67
2022-08-20T19:11:24.432Z,20.85
2022-08-20T19:16:37.283Z,20.67
2022-08-20T19:21:43.616Z,20.44
2022-08-20T19:26:52.216Z,20.44
2022-08-20T19:32:02.993Z,20.43
2022-08-20T19:37:35.761Z,20.22
2022-08-20T19:42:42.392Z,20.40
2022-08-20T19:48:02.719Z,20.42
2022-08-20T19:53:30.819Z,20.40
2022-08-20T19:58:33.988Z,20.20
2022-08-20T20:03:37.986Z,20.23
2022-08-20T20:08:44.567Z,20.21
2022-08-20T20:13:47.166Z,20.15
2022-08-20T20:19:09.114Z,20.16
2022-08-20T20:24:22.404Z,20.34
2022-08-20T20:29:28.071Z,20.19
2022-08-20T20:34:38.121Z,20.13
2022-08-20T20:40:27.289Z,20.37
2022-08-20T20:45:35.033Z,20.28
2022-08-20T20:50:40.333Z,20.15
2022-08-20T20:55:54.624Z,20.31
2022-08-20T21:00:56.778Z,20.15
2022-08-20T21:05:58.886Z,20.12
2022-08-20T21:11:01.364Z,20.12
2022-08-20T21:16:03.794Z,20.05
2022-08-20T21:21:08.317Z,20.01
2022-08-20T21:26:10.478Z,19.93
2022-08-20T21:31:13.333Z,19.87
2022-08-20T21:36:15.498Z,19.77
2022-08-20T21:41:17.930Z,19.75
2022-08-20T21:46:24.864Z,19.71
2022-08-20T21:51:27.311Z,19.64
2022-08-20T21:56:33.802Z,19.59
2022-08-20T22:01:38.363Z,19.54
2022-08-20T22:06:40.658Z,19.47
2022-08-20T22:11:42.893Z,19.42
2022-08-20T22:16:45.560Z,19.38
2022-08-20T22:21:49.526Z,19.37
2022-08-20T22:26:52.184Z,19.30
2022-08-20T22:31:54.458Z,19.24
2022-08-20T22:36:58.536Z,19.24
2022-08-20T22:42:00.771Z,19.20
2022-08-20T22:47:07.182Z,19.24
2022-08-20T22:52:10.970Z,19.13
2022-08-20T22:57:14.710Z,19.12
2022-08-20T23:02:18.383Z,19.09
2022-08-20T23:07:21.060Z,18.98
2022-08-20T23:12:24.131Z,18.88
2022-08-20T23:17:26.578Z,18.85
2022-08-20T23:22:29.032Z,18.76
2022-08-20T23:27:32.902Z,18.72
2022-08-20T23:32:35.044Z,18.64
2022-08-20T23:37:45.892Z,18.65
2022-08-20T23:42:48.219Z,18.50
2022-08-20T23:47:50.457Z,18.42
2022-08-20T23:52:54.070Z,18.36
2022-08-20T23:57:56.436Z,18.26
